sensor_id;sensor_type;location;lat;lon;timestamp;pressure;altitude;pressure_sealevel;temperature;humidity
70968;BME280;58629;48.808;8.820;2022-10-28T00:02:18;97883.28;;;11.31;100.00
70968;BME280;58629;48.808;8.820;2022-10-28T00:04:43;97877.19;;;11.34;100.00
70968;BME280;58629;48.808;8.820;2022-10-28T00:07:08;97879.78;;;11.41;100.00
70968;BME280;58629;48.808;8.820;2022-10-28T00:09:34;97881.69;;;11.41;100.00
70968;BME280;58629;48.808;8.820;2022-10-28T00:11:59;97875.69;;;11.33;100.00
70968;BME280;58629;48.808;8.820;2022-10-28T00:14:24;97877.25;;;11.27;100.00
70968;BME280;58629;48.808;8.820;2022-10-28T00:16:50;97874.94;;;11.32;100.00
70968;BME280;58629;48.808;8.820;2022-10-28T00:19:15;97878.38;;;11.29;100.00
70968;BME280;58629;48.808;8.820;2022-10-28T00:21:42;97880.28;;;11.25;100.00
70968;BME280;58629;48.808;8.820;2022-10-28T00:24:08;97877.63;;;11.25;100.00
70968;BME280;58629;48.808;8.820;2022-10-28T00:26:36;97873.50;;;11.24;100.00
70968;BME280;58629;48.808;8.820;2022-10-28T00:29:05;97873.50;;;11.24;100.00
70968;BME280;58629;48.808;8.820;2022-10-28T00:31:31;97879.56;;;11.25;100.00
70968;BME280;58629;48.808;8.820;2022-10-28T00:33:58;97877.31;;;11.20;100.00
70968;BME280;58629;48.808;8.820;2022-10-28T00:36:26;97877.72;;;11.18;100.00
70968;BME280;58629;48.808;8.820;2022-10-28T00:38:54;97873.53;;;11.17;100.00
70968;BME280;58629;48.808;8.820;2022-10-28T00:41:40;97884.91;;;11.18;100.00
70968;BME280;58629;48.808;8.820;2022-10-28T00:44:45;97880.72;;;11.20;100.00
70968;BME280;58629;48.808;8.820;2022-10-28T00:49:54;97884.34;;;11.37;100.00
70968;BME280;58629;48.808;8.820;2022-10-28T00:52:23;97883.31;;;11.27;100.00
70968;BME280;58629;48.808;8.820;2022-10-28T00:54:51;97879.94;;;11.23;100.00
70968;BME280;58629;48.808;8.820;2022-10-28T00:57:19;97877.22;;;11.30;100.00
70968;BME280;58629;48.808;8.820;2022-10-28T00:59:48;97871.13;;;11.33;100.00
70968;BME280;58629;48.808;8.820;2022-10-28T01:02:15;97868.88;;;11.32;100.00
70968;BME280;58629;48.808;8.820;2022-10-28T01:04:41;97867.00;;;11.32;100.00
70968;BME280;58629;48.808;8.820;2022-10-28T01:07:07;97861.50;;;11.50;99.29
70968;BME280;58629;48.808;8.820;2022-10-28T01:09:32;97860.81;;;11.46;99.03
70968;BME280;58629;48.808;8.820;2022-10-28T01:29:48;97857.69;;;11.55;98.45
70968;BME280;58629;48.808;8.820;2022-10-28T01:32:32;97857.75;;;11.48;99.28
70968;BME280;58629;48.808;8.820;2022-10-28T01:35:18;97859.13;;;11.59;99.32
70968;BME280;58629;48.808;8.820;2022-10-28T01:38:07;97854.53;;;11.67;96.85
70968;BME280;58629;48.808;8.820;2022-10-28T01:43:50;97853.78;;;11.63;96.79
70968;BME280;58629;48.808;8.820;2022-10-28T01:46:27;97852.34;;;11.58;98.11
70968;BME280;58629;48.808;8.820;2022-10-28T01:49:01;97849.03;;;11.51;98.77
70968;BME280;58629;48.808;8.820;2022-10-28T01:51:33;97841.00;;;11.54;99.48
70968;BME280;58629;48.808;8.820;2022-10-28T01:54:01;97846.59;;;11.63;99.08
70968;BME280;58629;48.808;8.820;2022-10-28T01:56:32;97846.84;;;11.79;97.10
70968;BME280;58629;48.808;8.820;2022-10-28T01:59:02;97837.03;;;11.73;96.36
70968;BME280;58629;48.808;8.820;2022-10-28T02:01:30;97844.81;;;11.53;96.82
70968;BME280;58629;48.808;8.820;2022-10-28T02:03:56;97841.38;;;11.56;97.23
70968;BME280;58629;48.808;8.820;2022-10-28T02:06:24;97848.16;;;11.57;97.94
70968;BME280;58629;48.808;8.820;2022-10-28T02:09:05;97833.31;;;11.70;96.71
70968;BME280;58629;48.808;8.820;2022-10-28T02:11:40;97828.88;;;11.53;95.83
70968;BME280;58629;48.808;8.820;2022-10-28T02:17:53;97829.69;;;11.50;98.46
70968;BME280;58629;48.808;8.820;2022-10-28T02:25:44;97836.66;;;11.74;98.39
70968;BME280;58629;48.808;8.820;2022-10-28T02:28:19;97825.91;;;11.85;98.81
70968;BME280;58629;48.808;8.820;2022-10-28T02:33:23;97831.88;;;11.92;96.24
70968;BME280;58629;48.808;8.820;2022-10-28T02:35:54;97829.38;;;11.82;96.21
70968;BME280;58629;48.808;8.820;2022-10-28T02:38:32;97829.13;;;11.69;97.10
70968;BME280;58629;48.808;8.820;2022-10-28T02:41:02;97823.75;;;11.76;98.49
70968;BME280;58629;48.808;8.820;2022-10-28T02:43:29;97828.63;;;11.81;99.31
70968;BME280;58629;48.808;8.820;2022-10-28T02:45:59;97834.22;;;11.87;99.33
70968;BME280;58629;48.808;8.820;2022-10-28T02:48:45;97824.91;;;12.05;97.28
70968;BME280;58629;48.808;8.820;2022-10-28T02:51:29;97823.91;;;11.96;96.21
70968;BME280;58629;48.808;8.820;2022-10-28T02:54:47;97815.53;;;11.97;96.81
70968;BME280;58629;48.808;8.820;2022-10-28T02:57:20;97821.97;;;12.00;97.69
70968;BME280;58629;48.808;8.820;2022-10-28T03:00:07;97824.56;;;12.03;97.86
70968;BME280;58629;48.808;8.820;2022-10-28T03:02:33;97822.88;;;12.16;95.12
70968;BME280;58629;48.808;8.820;2022-10-28T03:04:59;97821.78;;;12.14;96.23
70968;BME280;58629;48.808;8.820;2022-10-28T03:07:24;97825.56;;;12.13;97.34
70968;BME280;58629;48.808;8.820;2022-10-28T03:09:49;97819.84;;;12.18;98.15
70968;BME280;58629;48.808;8.820;2022-10-28T03:12:15;97818.97;;;12.25;97.31
70968;BME280;58629;48.808;8.820;2022-10-28T03:14:40;97824.56;;;12.30;97.08
70968;BME280;58629;48.808;8.820;2022-10-28T03:17:06;97825.56;;;12.43;95.92
70968;BME280;58629;48.808;8.820;2022-10-28T03:19:32;97826.59;;;12.49;95.50
70968;BME280;58629;48.808;8.820;2022-10-28T03:21:57;97825.00;;;12.55;95.60
70968;BME280;58629;48.808;8.820;2022-10-28T03:24:22;97835.53;;;12.62;95.36
70968;BME280;58629;48.808;8.820;2022-10-28T03:26:48;97822.44;;;12.75;94.71
70968;BME280;58629;48.808;8.820;2022-10-28T03:29:13;97824.97;;;12.82;94.31
70968;BME280;58629;48.808;8.820;2022-10-28T03:31:38;97819.97;;;12.87;94.45
70968;BME280;58629;48.808;8.820;2022-10-28T03:34:03;97803.91;;;12.94;94.19
70968;BME280;58629;48.808;8.820;2022-10-28T03:36:29;97803.19;;;12.90;93.79
70968;BME280;58629;48.808;8.820;2022-10-28T03:38:54;97801.69;;;12.89;93.98
70968;BME280;58629;48.808;8.820;2022-10-28T03:41:19;97807.47;;;12.84;94.12
70968;BME280;58629;48.808;8.820;2022-10-28T03:43:44;97795.34;;;12.83;94.57
70968;BME280;58629;48.808;8.820;2022-10-28T03:46:10;97796.84;;;12.84;94.70
70968;BME280;58629;48.808;8.820;2022-10-28T03:48:35;97791.94;;;12.83;95.10
70968;BME280;58629;48.808;8.820;2022-10-28T03:51:00;97792.22;;;12.88;94.36
70968;BME280;58629;48.808;8.820;2022-10-28T03:53:25;97791.28;;;12.98;93.96
70968;BME280;58629;48.808;8.820;2022-10-28T03:55:55;97790.84;;;13.03;93.02
70968;BME280;58629;48.808;8.820;2022-10-28T03:58:21;97791.84;;;13.13;92.69
70968;BME280;58629;48.808;8.820;2022-10-28T04:00:47;97791.44;;;13.15;92.57
70968;BME280;58629;48.808;8.820;2022-10-28T04:03:14;97794.03;;;13.18;91.96
70968;BME280;58629;48.808;8.820;2022-10-28T04:05:39;97789.31;;;13.26;91.55
70968;BME280;58629;48.808;8.820;2022-10-28T04:08:05;97802.09;;;13.34;90.05
70968;BME280;58629;48.808;8.820;2022-10-28T04:10:30;97798.91;;;13.43;89.27
70968;BME280;58629;48.808;8.820;2022-10-28T04:12:59;97801.09;;;13.48;89.49
70968;BME280;58629;48.808;8.820;2022-10-28T04:15:25;97790.38;;;13.51;88.86
70968;BME280;58629;48.808;8.820;2022-10-28T04:17:50;97793.31;;;13.57;88.40
70968;BME280;58629;48.808;8.820;2022-10-28T04:20:15;97795.91;;;13.60;88.30
70968;BME280;58629;48.808;8.820;2022-10-28T04:22:41;97802.31;;;13.63;88.25
70968;BME280;58629;48.808;8.820;2022-10-28T04:25:06;97800.69;;;13.69;87.51
70968;BME280;58629;48.808;8.820;2022-10-28T04:27:31;97805.88;;;13.76;86.51
70968;BME280;58629;48.808;8.820;2022-10-28T04:29:56;97807.72;;;13.79;86.43
70968;BME280;58629;48.808;8.820;2022-10-28T04:32:22;97805.03;;;13.79;87.85
70968;BME280;58629;48.808;8.820;2022-10-28T04:34:47;97798.78;;;13.69;88.64
70968;BME280;58629;48.808;8.820;2022-10-28T04:37:12;97802.59;;;13.68;88.49
70968;BME280;58629;48.808;8.820;2022-10-28T04:39:38;97800.81;;;13.62;88.63
70968;BME280;58629;48.808;8.820;2022-10-28T04:42:03;97792.50;;;13.60;89.30
70968;BME280;58629;48.808;8.820;2022-10-28T04:44:28;97781.78;;;13.63;88.35
70968;BME280;58629;48.808;8.820;2022-10-28T04:46:56;97777.06;;;13.71;88.07
70968;BME280;58629;48.808;8.820;2022-10-28T04:49:21;97772.91;;;13.89;88.18
70968;BME280;58629;48.808;8.820;2022-10-28T04:51:47;97772.25;;;14.02;87.48
70968;BME280;58629;48.808;8.820;2022-10-28T04:54:12;97765.78;;;14.19;88.89
70968;BME280;58629;48.808;8.820;2022-10-28T04:56:37;97767.19;;;14.43;85.43
70968;BME280;58629;48.808;8.820;2022-10-28T04:59:02;97772.69;;;14.52;85.55
70968;BME280;58629;48.808;8.820;2022-10-28T05:01:27;97775.94;;;14.59;87.46
70968;BME280;58629;48.808;8.820;2022-10-28T05:03:53;97769.78;;;14.62;87.20
70968;BME280;58629;48.808;8.820;2022-10-28T05:06:18;97778.03;;;14.68;87.42
70968;BME280;58629;48.808;8.820;2022-10-28T05:08:43;97779.00;;;14.74;86.75
70968;BME280;58629;48.808;8.820;2022-10-28T05:11:09;97785.09;;;14.74;87.04
70968;BME280;58629;48.808;8.820;2022-10-28T05:13:34;97777.78;;;14.78;87.46
70968;BME280;58629;48.808;8.820;2022-10-28T05:15:59;97778.53;;;14.79;87.75
70968;BME280;58629;48.808;8.820;2022-10-28T05:18:25;97781.53;;;14.81;86.94
70968;BME280;58629;48.808;8.820;2022-10-28T05:20:50;97771.59;;;14.82;86.33
70968;BME280;58629;48.808;8.820;2022-10-28T05:23:20;97769.34;;;14.80;84.30
70968;BME280;58629;48.808;8.820;2022-10-28T05:25:47;97767.34;;;14.84;86.17
70968;BME280;58629;48.808;8.820;2022-10-28T05:28:12;97768.78;;;14.89;85.90
70968;BME280;58629;48.808;8.820;2022-10-28T05:30:37;97770.44;;;14.83;84.05
70968;BME280;58629;48.808;8.820;2022-10-28T05:33:03;97777.25;;;14.84;83.90
70968;BME280;58629;48.808;8.820;2022-10-28T05:35:29;97772.59;;;14.88;83.68
70968;BME280;58629;48.808;8.820;2022-10-28T05:37:55;97775.25;;;14.88;84.23
70968;BME280;58629;48.808;8.820;2022-10-28T05:40:21;97768.94;;;14.82;83.51
70968;BME280;58629;48.808;8.820;2022-10-28T05:42:46;97778.69;;;14.88;83.88
70968;BME280;58629;48.808;8.820;2022-10-28T05:45:12;97768.25;;;14.94;84.12
70968;BME280;58629;48.808;8.820;2022-10-28T05:47:44;97763.09;;;14.87;79.36
70968;BME280;58629;48.808;8.820;2022-10-28T05:50:11;97760.91;;;14.98;83.04
70968;BME280;58629;48.808;8.820;2022-10-28T05:52:37;97758.56;;;15.00;83.64
70968;BME280;58629;48.808;8.820;2022-10-28T05:55:03;97752.31;;;15.06;83.56
70968;BME280;58629;48.808;8.820;2022-10-28T05:57:28;97759.06;;;15.11;83.60
70968;BME280;58629;48.808;8.820;2022-10-28T05:59:54;97767.31;;;15.16;83.55
70968;BME280;58629;48.808;8.820;2022-10-28T06:02:19;97760.38;;;15.19;83.65
70968;BME280;58629;48.808;8.820;2022-10-28T06:04:44;97762.28;;;15.18;83.48
70968;BME280;58629;48.808;8.820;2022-10-28T06:07:09;97755.78;;;15.19;83.40
70968;BME280;58629;48.808;8.820;2022-10-28T06:09:35;97762.97;;;15.22;83.14
70968;BME280;58629;48.808;8.820;2022-10-28T06:12:00;97753.09;;;15.19;82.26
70968;BME280;58629;48.808;8.820;2022-10-28T06:14:25;97753.06;;;15.07;80.92
70968;BME280;58629;48.808;8.820;2022-10-28T06:16:50;97758.00;;;14.92;80.18
70968;BME280;58629;48.808;8.820;2022-10-28T06:19:16;97752.63;;;14.80;81.31
70968;BME280;58629;48.808;8.820;2022-10-28T06:21:41;97757.22;;;14.63;80.80
70968;BME280;58629;48.808;8.820;2022-10-28T06:24:07;97766.19;;;14.53;80.99
70968;BME280;58629;48.808;8.820;2022-10-28T06:26:33;97759.94;;;14.43;81.44
70968;BME280;58629;48.808;8.820;2022-10-28T06:28:58;97769.09;;;14.42;80.05
70968;BME280;58629;48.808;8.820;2022-10-28T06:31:23;97768.69;;;14.44;79.86
70968;BME280;58629;48.808;8.820;2022-10-28T06:33:48;97768.03;;;14.40;79.46
70968;BME280;58629;48.808;8.820;2022-10-28T06:36:14;97772.44;;;14.46;78.58
70968;BME280;58629;48.808;8.820;2022-10-28T06:38:39;97767.94;;;14.43;79.01
70968;BME280;58629;48.808;8.820;2022-10-28T06:41:05;97771.69;;;14.46;78.53
70968;BME280;58629;48.808;8.820;2022-10-28T06:43:30;97775.44;;;14.48;79.29
70968;BME280;58629;48.808;8.820;2022-10-28T06:45:55;97779.69;;;14.78;74.96
70968;BME280;58629;48.808;8.820;2022-10-28T06:48:24;97781.94;;;14.80;75.87
70968;BME280;58629;48.808;8.820;2022-10-28T06:50:49;97781.09;;;14.99;74.01
70968;BME280;58629;48.808;8.820;2022-10-28T06:53:15;97791.88;;;15.24;72.42
70968;BME280;58629;48.808;8.820;2022-10-28T06:55:40;97798.19;;;15.46;70.94
70968;BME280;58629;48.808;8.820;2022-10-28T06:58:05;97807.69;;;15.47;72.38
70968;BME280;58629;48.808;8.820;2022-10-28T07:00:31;97809.03;;;15.39;74.09
70968;BME280;58629;48.808;8.820;2022-10-28T07:02:57;97809.09;;;15.35;73.78
70968;BME280;58629;48.808;8.820;2022-10-28T07:05:24;97809.22;;;15.32;73.81
70968;BME280;58629;48.808;8.820;2022-10-28T07:07:51;97812.13;;;15.21;76.43
70968;BME280;58629;48.808;8.820;2022-10-28T07:10:16;97805.91;;;15.12;77.68
70968;BME280;58629;48.808;8.820;2022-10-28T07:12:42;97803.31;;;15.08;76.65
70968;BME280;58629;48.808;8.820;2022-10-28T07:15:08;97805.56;;;15.10;76.63
70968;BME280;58629;48.808;8.820;2022-10-28T07:17:34;97806.00;;;15.08;76.14
70968;BME280;58629;48.808;8.820;2022-10-28T07:19:59;97801.41;;;15.09;76.54
70968;BME280;58629;48.808;8.820;2022-10-28T07:22:24;97805.19;;;15.11;76.39
70968;BME280;58629;48.808;8.820;2022-10-28T07:24:49;97807.00;;;15.14;76.61
70968;BME280;58629;48.808;8.820;2022-10-28T07:27:15;97803.63;;;15.26;75.43
70968;BME280;58629;48.808;8.820;2022-10-28T07:29:40;97806.31;;;15.42;74.72
70968;BME280;58629;48.808;8.820;2022-10-28T07:32:05;97807.19;;;15.52;74.13
70968;BME280;58629;48.808;8.820;2022-10-28T07:34:30;97808.00;;;15.49;73.67
70968;BME280;58629;48.808;8.820;2022-10-28T07:36:56;97812.63;;;15.48;73.69
70968;BME280;58629;48.808;8.820;2022-10-28T07:39:21;97827.22;;;15.44;75.31
70968;BME280;58629;48.808;8.820;2022-10-28T07:41:46;97825.75;;;15.43;76.87
70968;BME280;58629;48.808;8.820;2022-10-28T07:44:12;97833.47;;;15.37;76.63
70968;BME280;58629;48.808;8.820;2022-10-28T07:46:38;97825.44;;;15.37;75.31
70968;BME280;58629;48.808;8.820;2022-10-28T07:49:03;97825.88;;;15.36;75.28
70968;BME280;58629;48.808;8.820;2022-10-28T07:51:28;97826.63;;;15.36;75.94
70968;BME280;58629;48.808;8.820;2022-10-28T07:53:55;97824.63;;;15.40;76.16
70968;BME280;58629;48.808;8.820;2022-10-28T07:56:20;97826.09;;;15.41;76.70
70968;BME280;58629;48.808;8.820;2022-10-28T07:58:46;97831.81;;;15.43;75.73
70968;BME280;58629;48.808;8.820;2022-10-28T08:01:13;97831.88;;;15.40;76.75
70968;BME280;58629;48.808;8.820;2022-10-28T08:03:39;97834.97;;;15.38;77.03
70968;BME280;58629;48.808;8.820;2022-10-28T08:06:10;97826.78;;;15.45;75.91
70968;BME280;58629;48.808;8.820;2022-10-28T08:08:36;97821.00;;;15.63;74.16
70968;BME280;58629;48.808;8.820;2022-10-28T08:11:10;97814.75;;;15.82;72.64
70968;BME280;58629;48.808;8.820;2022-10-28T08:13:35;97831.94;;;15.81;72.50
70968;BME280;58629;48.808;8.820;2022-10-28T08:16:01;97824.16;;;15.87;72.14
70968;BME280;58629;48.808;8.820;2022-10-28T08:18:26;97825.25;;;15.89;72.03
70968;BME280;58629;48.808;8.820;2022-10-28T08:20:51;97824.25;;;15.83;72.42
70968;BME280;58629;48.808;8.820;2022-10-28T08:23:16;97831.50;;;15.83;72.18
70968;BME280;58629;48.808;8.820;2022-10-28T08:25:48;97823.94;;;15.81;72.25
70968;BME280;58629;48.808;8.820;2022-10-28T08:28:14;97831.28;;;15.77;73.48
70968;BME280;58629;48.808;8.820;2022-10-28T08:30:39;97835.91;;;15.77;73.09
70968;BME280;58629;48.808;8.820;2022-10-28T08:33:04;97835.97;;;15.73;74.00
70968;BME280;58629;48.808;8.820;2022-10-28T08:35:30;97835.97;;;15.73;73.41
70968;BME280;58629;48.808;8.820;2022-10-28T08:37:55;97838.31;;;15.71;74.28
70968;BME280;58629;48.808;8.820;2022-10-28T08:40:27;97839.41;;;15.74;74.83
70968;BME280;58629;48.808;8.820;2022-10-28T08:43:01;97838.31;;;15.71;76.46
70968;BME280;58629;48.808;8.820;2022-10-28T08:48:21;97855.59;;;15.95;72.56
70968;BME280;58629;48.808;8.820;2022-10-28T08:50:55;97852.81;;;15.99;72.56
70968;BME280;58629;48.808;8.820;2022-10-28T08:53:28;97840.53;;;16.01;72.23
70968;BME280;58629;48.808;8.820;2022-10-28T08:56:12;97827.41;;;16.07;73.26
70968;BME280;58629;48.808;8.820;2022-10-28T08:58:42;97814.38;;;16.09;72.89
70968;BME280;58629;48.808;8.820;2022-10-28T09:01:16;97815.78;;;16.13;74.76
70968;BME280;58629;48.808;8.820;2022-10-28T09:03:46;97817.81;;;16.09;77.01
70968;BME280;58629;48.808;8.820;2022-10-28T09:06:14;97813.66;;;16.08;77.22
70968;BME280;58629;48.808;8.820;2022-10-28T09:08:42;97815.25;;;16.06;77.05
70968;BME280;58629;48.808;8.820;2022-10-28T09:25:14;97835.94;;;16.68;76.12
70968;BME280;58629;48.808;8.820;2022-10-28T09:27:50;97826.50;;;16.76;73.14
70968;BME280;58629;48.808;8.820;2022-10-28T09:35:46;97832.88;;;17.04;72.28
70968;BME280;58629;48.808;8.820;2022-10-28T09:38:27;97828.34;;;17.13;70.61
70968;BME280;58629;48.808;8.820;2022-10-28T09:46:30;97827.75;;;17.44;73.87
70968;BME280;58629;48.808;8.820;2022-10-28T09:49:02;97827.97;;;17.49;74.90
70968;BME280;58629;48.808;8.820;2022-10-28T09:52:04;97828.59;;;17.53;72.97
70968;BME280;58629;48.808;8.820;2022-10-28T09:54:36;97821.31;;;17.54;72.78
70968;BME280;58629;48.808;8.820;2022-10-28T09:57:03;97820.88;;;17.55;74.94
70968;BME280;58629;48.808;8.820;2022-10-28T09:59:29;97820.56;;;17.53;74.58
70968;BME280;58629;48.808;8.820;2022-10-28T10:01:55;97816.38;;;17.52;73.52
70968;BME280;58629;48.808;8.820;2022-10-28T10:04:24;97789.66;;;17.61;72.18
70968;BME280;58629;48.808;8.820;2022-10-28T10:06:56;97813.16;;;17.57;72.92
70968;BME280;58629;48.808;8.820;2022-10-28T10:09:28;97816.06;;;17.50;75.09
70968;BME280;58629;48.808;8.820;2022-10-28T10:11:59;97821.22;;;17.45;74.44
70968;BME280;58629;48.808;8.820;2022-10-28T10:14:35;97830.72;;;17.46;76.29
70968;BME280;58629;48.808;8.820;2022-10-28T10:17:05;97826.13;;;17.46;76.92
70968;BME280;58629;48.808;8.820;2022-10-28T10:20:00;97828.72;;;17.50;76.63
70968;BME280;58629;48.808;8.820;2022-10-28T10:22:37;97833.63;;;17.51;75.35
70968;BME280;58629;48.808;8.820;2022-10-28T10:25:21;97821.50;;;17.59;74.47
70968;BME280;58629;48.808;8.820;2022-10-28T10:27:52;97823.94;;;17.66;73.26
70968;BME280;58629;48.808;8.820;2022-10-28T10:30:21;97829.97;;;17.79;71.64
70968;BME280;58629;48.808;8.820;2022-10-28T10:32:47;97821.00;;;17.95;69.43
70968;BME280;58629;48.808;8.820;2022-10-28T10:37:43;97839.31;;;18.18;66.53
70968;BME280;58629;48.808;8.820;2022-10-28T10:42:40;97844.53;;;18.52;68.01
70968;BME280;58629;48.808;8.820;2022-10-28T10:47:40;97831.31;;;18.58;63.70
70968;BME280;58629;48.808;8.820;2022-10-28T10:50:27;97825.81;;;18.61;63.00
70968;BME280;58629;48.808;8.820;2022-10-28T10:52:55;97814.94;;;18.65;66.83
70968;BME280;58629;48.808;8.820;2022-10-28T10:55:39;97815.84;;;18.71;67.63
70968;BME280;58629;48.808;8.820;2022-10-28T10:58:15;97823.34;;;18.85;67.11
70968;BME280;58629;48.808;8.820;2022-10-28T11:00:51;97821.28;;;18.89;67.45
70968;BME280;58629;48.808;8.820;2022-10-28T11:05:55;97819.03;;;18.87;66.68
70968;BME280;58629;48.808;8.820;2022-10-28T11:08:39;97817.09;;;18.88;62.12
70968;BME280;58629;48.808;8.820;2022-10-28T11:11:07;97817.53;;;18.86;63.72
70968;BME280;58629;48.808;8.820;2022-10-28T11:13:35;97811.09;;;18.84;63.11
70968;BME280;58629;48.808;8.820;2022-10-28T11:16:06;97798.28;;;18.79;66.17
70968;BME280;58629;48.808;8.820;2022-10-28T11:18:42;97789.31;;;18.73;68.53
70968;BME280;58629;48.808;8.820;2022-10-28T11:21:35;97789.16;;;18.67;68.52
70968;BME280;58629;48.808;8.820;2022-10-28T11:33:20;97795.72;;;18.66;70.07
70968;BME280;58629;48.808;8.820;2022-10-28T11:35:58;97781.28;;;18.73;69.44
70968;BME280;58629;48.808;8.820;2022-10-28T11:38:42;97779.19;;;18.77;69.72
70968;BME280;58629;48.808;8.820;2022-10-28T11:41:23;97783.53;;;18.83;72.13
70968;BME280;58629;48.808;8.820;2022-10-28T11:43:54;97776.09;;;18.87;69.01
70968;BME280;58629;48.808;8.820;2022-10-28T11:49:32;97768.53;;;19.13;67.96
70968;BME280;58629;48.808;8.820;2022-10-28T11:52:24;97784.66;;;19.40;66.65
70968;BME280;58629;48.808;8.820;2022-10-28T11:55:02;97776.25;;;19.65;63.73
70968;BME280;58629;48.808;8.820;2022-10-28T12:05:50;97765.69;;;20.13;63.70
70968;BME280;58629;48.808;8.820;2022-10-28T12:10:59;97743.00;;;20.05;65.10
70968;BME280;58629;48.808;8.820;2022-10-28T12:16:26;97736.69;;;20.17;65.44
70968;BME280;58629;48.808;8.820;2022-10-28T12:18:59;97738.16;;;20.27;65.67
70968;BME280;58629;48.808;8.820;2022-10-28T12:21:32;97733.28;;;20.49;65.75
70968;BME280;58629;48.808;8.820;2022-10-28T12:23:58;97740.50;;;20.66;66.37
70968;BME280;58629;48.808;8.820;2022-10-28T12:26:46;97744.72;;;20.82;65.72
70968;BME280;58629;48.808;8.820;2022-10-28T12:29:18;97738.47;;;21.00;65.50
70968;BME280;58629;48.808;8.820;2022-10-28T12:32:02;97725.09;;;21.14;63.80
70968;BME280;58629;48.808;8.820;2022-10-28T12:34:33;97727.53;;;21.27;62.83
70968;BME280;58629;48.808;8.820;2022-10-28T12:37:30;97726.06;;;21.40;62.93
70968;BME280;58629;48.808;8.820;2022-10-28T12:40:10;97724.28;;;21.52;61.15
70968;BME280;58629;48.808;8.820;2022-10-28T12:42:42;97734.81;;;21.65;60.00
70968;BME280;58629;48.808;8.820;2022-10-28T12:45:13;97724.88;;;21.85;60.37
70968;BME280;58629;48.808;8.820;2022-10-28T12:55:41;97728.00;;;22.13;59.10
70968;BME280;58629;48.808;8.820;2022-10-28T12:58:23;97727.88;;;22.22;59.93
70968;BME280;58629;48.808;8.820;2022-10-28T13:01:07;97732.50;;;22.36;59.37
70968;BME280;58629;48.808;8.820;2022-10-28T13:03:34;97731.28;;;22.37;59.47
70968;BME280;58629;48.808;8.820;2022-10-28T13:09:18;97728.34;;;22.55;59.40
70968;BME280;58629;48.808;8.820;2022-10-28T13:23:17;97704.81;;;22.56;58.80
70968;BME280;58629;48.808;8.820;2022-10-28T13:25:58;97707.22;;;22.54;58.97
70968;BME280;58629;48.808;8.820;2022-10-28T13:28:30;97702.69;;;22.60;58.97
70968;BME280;58629;48.808;8.820;2022-10-28T13:31:05;97711.84;;;22.68;58.20
70968;BME280;58629;48.808;8.820;2022-10-28T13:33:33;97699.72;;;22.78;58.59
70968;BME280;58629;48.808;8.820;2022-10-28T13:36:08;97714.63;;;22.73;58.34
70968;BME280;58629;48.808;8.820;2022-10-28T13:38:35;97722.72;;;22.73;62.08
70968;BME280;58629;48.808;8.820;2022-10-28T13:49:29;97721.53;;;23.00;57.66
70968;BME280;58629;48.808;8.820;2022-10-28T13:57:01;97714.63;;;22.73;61.09
70968;BME280;58629;48.808;8.820;2022-10-28T13:59:37;97712.56;;;22.68;61.46
70968;BME280;58629;48.808;8.820;2022-10-28T14:02:21;97725.53;;;22.64;62.09
70968;BME280;58629;48.808;8.820;2022-10-28T14:05:07;97724.06;;;22.63;62.87
70968;BME280;58629;48.808;8.820;2022-10-28T14:07:35;97721.72;;;22.56;64.84
70968;BME280;58629;48.808;8.820;2022-10-28T14:10:16;97720.84;;;22.44;64.88
70968;BME280;58629;48.808;8.820;2022-10-28T14:12:47;97729.72;;;22.30;64.28
70968;BME280;58629;48.808;8.820;2022-10-28T14:15:15;97729.38;;;22.23;63.82
70968;BME280;58629;48.808;8.820;2022-10-28T14:17:52;97728.75;;;22.13;63.62
70968;BME280;58629;48.808;8.820;2022-10-28T14:20:36;97733.59;;;22.09;62.04
70968;BME280;58629;48.808;8.820;2022-10-28T14:33:36;97749.69;;;21.89;61.92
70968;BME280;58629;48.808;8.820;2022-10-28T14:47:15;97751.25;;;21.52;65.83
70968;BME280;58629;48.808;8.820;2022-10-28T14:50:14;97743.34;;;21.48;64.96
70968;BME280;58629;48.808;8.820;2022-10-28T14:52:41;97745.19;;;21.42;65.00
70968;BME280;58629;48.808;8.820;2022-10-28T14:55:29;97741.66;;;21.36;66.08
70968;BME280;58629;48.808;8.820;2022-10-28T15:00:41;97728.16;;;21.22;67.31
70968;BME280;58629;48.808;8.820;2022-10-28T15:03:09;97725.94;;;21.20;67.62
70968;BME280;58629;48.808;8.820;2022-10-28T15:05:35;97725.84;;;21.15;68.03
70968;BME280;58629;48.808;8.820;2022-10-28T15:08:02;97727.97;;;21.11;66.69
70968;BME280;58629;48.808;8.820;2022-10-28T15:10:29;97728.16;;;21.07;66.20
70968;BME280;58629;48.808;8.820;2022-10-28T15:12:58;97731.47;;;21.02;65.69
70968;BME280;58629;48.808;8.820;2022-10-28T15:15:29;97725.19;;;20.96;65.65
70968;BME280;58629;48.808;8.820;2022-10-28T15:17:56;97717.75;;;20.91;65.63
70968;BME280;58629;48.808;8.820;2022-10-28T15:22:49;97725.50;;;20.74;67.34
70968;BME280;58629;48.808;8.820;2022-10-28T15:25:17;97719.44;;;20.65;68.92
70968;BME280;58629;48.808;8.820;2022-10-28T15:27:46;97719.94;;;20.54;69.49
70968;BME280;58629;48.808;8.820;2022-10-28T15:30:19;97724.47;;;20.48;70.02
70968;BME280;58629;48.808;8.820;2022-10-28T15:32:48;97728.69;;;20.40;70.77
70968;BME280;58629;48.808;8.820;2022-10-28T15:37:52;97731.72;;;20.33;71.66
70968;BME280;58629;48.808;8.820;2022-10-28T15:40:25;97728.16;;;20.27;72.24
70968;BME280;58629;48.808;8.820;2022-10-28T15:43:01;97732.38;;;20.19;72.93
70968;BME280;58629;48.808;8.820;2022-10-28T15:45:30;97728.97;;;20.10;73.75
70968;BME280;58629;48.808;8.820;2022-10-28T15:47:57;97731.38;;;19.99;73.87
70968;BME280;58629;48.808;8.820;2022-10-28T15:50:31;97729.47;;;19.90;74.54
70968;BME280;58629;48.808;8.820;2022-10-28T15:55:36;97730.88;;;19.67;77.47
70968;BME280;58629;48.808;8.820;2022-10-28T15:58:29;97733.91;;;19.51;78.59
70968;BME280;58629;48.808;8.820;2022-10-28T16:00:56;97733.03;;;19.36;79.43
70968;BME280;58629;48.808;8.820;2022-10-28T16:03:27;97733.91;;;19.24;79.67